createdAt,value
2022-10-13T00:00:19.603Z,22.70
2022-10-13T00:00:40.765Z,22.30
2022-10-13T00:01:01.854Z,22.50
2022-10-13T00:01:22.920Z,21.50
2022-10-13T00:01:43.945Z,21.40
2022-10-13T00:02:04.993Z,21.40
2022-10-13T00:02:26.042Z,21.80
2022-10-13T00:02:47.091Z,24.90
2022-10-13T00:03:08.158Z,23.70
2022-10-13T00:03:29.213Z,21.40
2022-10-13T00:03:50.266Z,19.20
2022-10-13T00:04:11.338Z,19.50
2022-10-13T00:04:32.405Z,20.70
2022-10-13T00:04:53.456Z,20.80
2022-10-13T00:05:14.503Z,21.80
2022-10-13T00:05:35.549Z,20.60
2022-10-13T00:05:56.601Z,19.80
2022-10-13T00:06:17.650Z,21.30
2022-10-13T00:06:38.703Z,21.10
2022-10-13T00:06:59.751Z,22.20
2022-10-13T00:07:20.802Z,22.80
2022-10-13T00:07:41.841Z,22.70
2022-10-13T00:08:02.904Z,21.70
2022-10-13T00:08:23.950Z,19.20
2022-10-13T00:08:44.982Z,23.40
2022-10-13T00:09:06.056Z,23.10
2022-10-13T00:09:27.116Z,20.10
2022-10-13T00:09:48.377Z,20.80
2022-10-13T00:10:09.432Z,19.80
2022-10-13T00:10:30.469Z,20.60
2022-10-13T00:10:51.526Z,22.30
2022-10-13T00:11:12.577Z,21.60
2022-10-13T00:11:33.623Z,21.30
2022-10-13T00:11:54.681Z,21.60
2022-10-13T00:12:16.079Z,21.40
2022-10-13T00:12:37.240Z,20.20
2022-10-13T00:12:58.297Z,20.00
2022-10-13T00:13:19.371Z,24.30
2022-10-13T00:13:40.423Z,21.70
2022-10-13T00:14:01.474Z,19.90
2022-10-13T00:14:22.535Z,18.40
2022-10-13T00:14:43.579Z,19.40
2022-10-13T00:15:04.715Z,19.50
2022-10-13T00:15:25.753Z,20.30
2022-10-13T00:15:46.802Z,21.80
2022-10-13T00:16:07.849Z,19.90
2022-10-13T00:16:28.927Z,21.80
2022-10-13T00:16:49.975Z,19.60
2022-10-13T00:17:11.034Z,23.40
2022-10-13T00:17:32.069Z,22.30
2022-10-13T00:17:53.126Z,22.00
2022-10-13T00:18:14.174Z,20.30
2022-10-13T00:18:35.225Z,22.30
2022-10-13T00:18:56.269Z,21.70
2022-10-13T00:19:17.320Z,20.00
2022-10-13T00:19:38.391Z,21.80
2022-10-13T00:19:59.461Z,23.30
2022-10-13T00:20:20.635Z,21.70
2022-10-13T00:20:41.681Z,22.20
2022-10-13T00:21:02.733Z,20.20
2022-10-13T00:21:23.786Z,21.10
2022-10-13T00:21:44.836Z,21.10
2022-10-13T00:22:05.889Z,21.00
2022-10-13T00:22:26.947Z,19.40
2022-10-13T00:22:48.009Z,20.80
2022-10-13T00:23:09.065Z,21.60
2022-10-13T00:23:30.112Z,21.40
2022-10-13T00:23:51.184Z,22.10
2022-10-13T00:24:12.229Z,19.80
2022-10-13T00:24:33.282Z,21.80
2022-10-13T00:24:54.338Z,21.20
2022-10-13T00:25:15.397Z,20.10
2022-10-13T00:25:36.485Z,21.10
2022-10-13T00:25:57.529Z,19.40
2022-10-13T00:26:18.593Z,19.80
2022-10-13T00:26:39.644Z,19.10
2022-10-13T00:27:00.687Z,19.60
2022-10-13T00:27:21.744Z,19.80
2022-10-13T00:27:42.817Z,19.80
2022-10-13T00:28:03.872Z,21.30
2022-10-13T00:28:24.983Z,19.60
2022-10-13T00:28:51.250Z,21.50
2022-10-13T00:29:12.954Z,20.60
2022-10-13T00:29:34.001Z,21.10
2022-10-13T00:29:55.059Z,19.40
2022-10-13T00:30:16.114Z,19.70
2022-10-13T00:30:37.172Z,20.70
2022-10-13T00:30:58.225Z,21.10
2022-10-13T00:31:19.286Z,20.40
2022-10-13T00:31:40.324Z,20.90
2022-10-13T00:32:01.371Z,22.10
2022-10-13T00:32:22.423Z,21.10
2022-10-13T00:32:43.481Z,21.20
2022-10-13T00:33:04.521Z,20.90
2022-10-13T00:33:25.566Z,20.70
2022-10-13T00:33:46.613Z,22.20
2022-10-13T00:34:07.662Z,19.80
2022-10-13T00:34:28.718Z,18.90
2022-10-13T00:34:49.779Z,17.80
2022-10-13T00:35:10.828Z,20.60
2022-10-13T00:35:31.879Z,19.50
2022-10-13T00:35:53.047Z,19.80
2022-10-13T00:36:14.098Z,21.10
2022-10-13T00:36:35.153Z,18.10
2022-10-13T00:36:56.198Z,19.70
2022-10-13T00:37:17.249Z,20.00
2022-10-13T00:37:38.299Z,19.80
2022-10-13T00:37:59.366Z,18.60
2022-10-13T00:38:20.420Z,19.30
2022-10-13T00:38:41.477Z,20.60
2022-10-13T00:39:02.531Z,20.00
2022-10-13T00:39:23.596Z,21.60
2022-10-13T00:39:44.640Z,19.90
2022-10-13T00:40:05.708Z,18.10
2022-10-13T00:40:26.763Z,20.30
2022-10-13T00:40:47.801Z,21.70
2022-10-13T00:41:09.027Z,19.90
2022-10-13T00:41:30.100Z,19.00
2022-10-13T00:41:51.154Z,20.90
2022-10-13T00:42:12.208Z,19.90
2022-10-13T00:42:33.254Z,18.90
2022-10-13T00:42:54.334Z,19.20
2022-10-13T00:43:15.364Z,17.80
2022-10-13T00:43:36.496Z,20.40
2022-10-13T00:43:57.496Z,19.70
2022-10-13T00:44:18.539Z,20.70
2022-10-13T00:44:39.595Z,20.10
2022-10-13T00:45:00.646Z,20.30
2022-10-13T00:45:21.693Z,20.20
2022-10-13T00:45:42.753Z,20.80
2022-10-13T00:46:03.790Z,20.00
2022-10-13T00:46:24.949Z,20.70
2022-10-13T00:46:45.994Z,20.70
2022-10-13T00:47:07.044Z,20.50
2022-10-13T00:47:28.091Z,19.00
2022-10-13T00:47:49.146Z,20.60
2022-10-13T00:48:10.192Z,21.40
2022-10-13T00:48:31.239Z,20.20
2022-10-13T00:48:52.289Z,18.70
2022-10-13T00:49:13.338Z,19.80
2022-10-13T00:49:34.499Z,19.30
2022-10-13T00:49:55.552Z,20.70
2022-10-13T00:50:16.593Z,19.10
2022-10-13T00:50:37.643Z,19.30
2022-10-13T00:50:58.697Z,21.10
2022-10-13T00:51:19.738Z,19.50
2022-10-13T00:51:40.910Z,20.90
2022-10-13T00:52:01.971Z,19.80
2022-10-13T00:52:23.009Z,19.30
2022-10-13T00:52:44.057Z,19.50
2022-10-13T00:53:05.112Z,17.90
2022-10-13T00:53:26.160Z,18.50
2022-10-13T00:53:47.206Z,19.30
2022-10-13T00:54:08.269Z,22.00
2022-10-13T00:54:29.309Z,21.20
2022-10-13T00:54:50.364Z,20.20
2022-10-13T00:55:11.423Z,22.40
2022-10-13T00:55:32.483Z,22.80
2022-10-13T00:55:53.521Z,22.10
2022-10-13T00:56:14.582Z,21.40
2022-10-13T00:56:35.742Z,21.90
2022-10-13T00:56:56.781Z,24.00
2022-10-13T00:57:17.853Z,25.70
2022-10-13T00:57:38.884Z,25.10
2022-10-13T00:58:04.750Z,25.00
2022-10-13T00:58:26.893Z,21.90
2022-10-13T00:58:47.982Z,25.70
2022-10-13T00:59:09.009Z,27.70
2022-10-13T00:59:30.066Z,30.20
2022-10-13T00:59:51.112Z,29.20
2022-10-13T01:00:12.171Z,29.20
2022-10-13T01:00:33.241Z,28.30
2022-10-13T01:00:54.375Z,27.10
2022-10-13T01:01:15.476Z,31.40
2022-10-13T01:01:36.533Z,37.90
2022-10-13T01:01:57.597Z,33.90
2022-10-13T01:02:19.032Z,34.40
2022-10-13T01:02:40.281Z,35.20
2022-10-13T01:03:01.324Z,33.70
2022-10-13T01:03:22.382Z,31.60
2022-10-13T01:03:43.427Z,32.60
2022-10-13T01:04:04.483Z,33.40
2022-10-13T01:04:25.532Z,32.30
2022-10-13T01:04:46.582Z,37.10
2022-10-13T01:05:07.626Z,35.60
2022-10-13T01:05:28.682Z,31.20
2022-10-13T01:05:49.717Z,31.70
2022-10-13T01:06:10.783Z,33.80
2022-10-13T01:06:31.826Z,33.90
2022-10-13T01:06:52.887Z,34.80
2022-10-13T01:07:13.943Z,36.60
2022-10-13T01:07:34.991Z,31.40
2022-10-13T01:07:56.040Z,34.40
2022-10-13T01:08:17.108Z,33.70
2022-10-13T01:08:38.147Z,35.50
2022-10-13T01:08:59.208Z,37.70
2022-10-13T01:09:20.267Z,34.50
2022-10-13T01:09:41.314Z,31.50
2022-10-13T01:10:02.363Z,39.20
2022-10-13T01:10:23.421Z,39.40
2022-10-13T01:10:44.471Z,34.10
2022-10-13T01:11:05.511Z,35.90
2022-10-13T01:11:26.562Z,40.50
2022-10-13T01:11:47.723Z,36.60
2022-10-13T01:12:08.768Z,36.20
2022-10-13T01:12:29.814Z,38.60
2022-10-13T01:12:50.872Z,37.30
2022-10-13T01:13:11.914Z,37.70
2022-10-13T01:13:32.959Z,39.20
2022-10-13T01:13:54.159Z,37.30
2022-10-13T01:14:15.149Z,35.90
2022-10-13T01:14:36.196Z,33.70
2022-10-13T01:14:57.363Z,37.00
2022-10-13T01:15:18.423Z,33.60
2022-10-13T01:15:39.456Z,36.90
2022-10-13T01:16:00.524Z,37.00
2022-10-13T01:16:21.566Z,39.40
2022-10-13T01:16:42.614Z,40.50
2022-10-13T01:17:03.711Z,41.50
2022-10-13T01:17:24.762Z,41.60
2022-10-13T01:17:45.829Z,41.00
2022-10-13T01:18:06.854Z,44.70
2022-10-13T01:18:27.905Z,47.30
2022-10-13T01:18:48.949Z,50.10
2022-10-13T01:19:09.995Z,46.10
2022-10-13T01:19:31.044Z,49.30
2022-10-13T01:19:52.095Z,44.10
2022-10-13T01:20:13.143Z,44.50
2022-10-13T01:20:34.201Z,46.50
2022-10-13T01:20:55.247Z,45.90
2022-10-13T01:21:16.297Z,43.90
2022-10-13T01:21:37.347Z,46.20
2022-10-13T01:21:58.397Z,45.30
2022-10-13T01:22:20.026Z,45.30
2022-10-13T01:22:41.233Z,48.80
2022-10-13T01:23:02.277Z,45.10
2022-10-13T01:23:23.359Z,45.50
2022-10-13T01:23:44.401Z,45.20
2022-10-13T01:24:05.452Z,41.80
2022-10-13T01:24:26.497Z,46.00
2022-10-13T01:24:47.561Z,45.30
2022-10-13T01:25:08.638Z,45.70
2022-10-13T01:25:29.679Z,47.50
2022-10-13T01:25:50.729Z,45.70
2022-10-13T01:26:11.781Z,46.00
2022-10-13T01:26:32.837Z,46.50
2022-10-13T01:26:53.886Z,44.00
2022-10-13T01:27:14.953Z,45.20
2022-10-13T01:27:36.114Z,45.40
2022-10-13T01:27:57.175Z,43.20
2022-10-13T01:28:18.270Z,47.80
2022-10-13T01:28:39.353Z,51.70
2022-10-13T01:29:00.386Z,48.00
2022-10-13T01:29:21.418Z,52.80
2022-10-13T01:29:42.461Z,48.50
2022-10-13T01:30:03.522Z,47.20
2022-10-13T01:30:24.569Z,48.90
2022-10-13T01:30:45.621Z,46.10
2022-10-13T01:31:06.703Z,52.00
2022-10-13T01:31:27.735Z,49.30
2022-10-13T01:31:48.787Z,46.70
2022-10-13T01:32:09.837Z,46.50
2022-10-13T01:32:30.884Z,47.90
2022-10-13T01:32:51.948Z,46.50
2022-10-13T01:33:12.995Z,45.70
2022-10-13T01:33:34.051Z,49.20
2022-10-13T01:33:55.098Z,52.10
2022-10-13T01:34:16.152Z,46.30
2022-10-13T01:34:37.195Z,48.30
2022-10-13T01:34:58.252Z,49.50
2022-10-13T01:35:19.302Z,49.80
2022-10-13T01:35:40.460Z,47.30
2022-10-13T01:36:01.519Z,47.50
2022-10-13T01:36:22.568Z,53.10
2022-10-13T01:36:43.623Z,50.80
2022-10-13T01:37:04.676Z,48.30
2022-10-13T01:37:25.734Z,49.10
2022-10-13T01:37:46.800Z,48.20
2022-10-13T01:38:07.835Z,50.10
2022-10-13T01:38:29.021Z,51.30
2022-10-13T01:38:50.072Z,52.90
2022-10-13T01:39:11.157Z,52.50
2022-10-13T01:39:32.274Z,48.10
2022-10-13T01:39:53.265Z,53.30
2022-10-13T01:40:14.335Z,53.20
2022-10-13T01:40:35.367Z,48.60
2022-10-13T01:40:56.416Z,57.60
2022-10-13T01:41:17.459Z,58.10
2022-10-13T01:41:38.518Z,55.50
2022-10-13T01:41:59.571Z,51.20
2022-10-13T01:42:21.027Z,46.70
2022-10-13T01:42:42.237Z,47.10
2022-10-13T01:43:03.276Z,48.30
2022-10-13T01:43:24.333Z,48.80
2022-10-13T01:43:45.445Z,51.90
2022-10-13T01:44:06.489Z,49.00
2022-10-13T01:44:27.516Z,45.30
2022-10-13T01:44:48.562Z,44.10
2022-10-13T01:45:09.614Z,41.50
2022-10-13T01:45:30.682Z,41.10
2022-10-13T01:45:51.732Z,40.00
2022-10-13T01:46:12.776Z,44.10
2022-10-13T01:46:33.825Z,43.00
2022-10-13T01:46:54.872Z,41.80
2022-10-13T01:47:15.926Z,41.20
2022-10-13T01:47:36.970Z,39.60
2022-10-13T01:47:58.024Z,44.50
2022-10-13T01:48:19.066Z,47.50
2022-10-13T01:48:40.112Z,44.90
2022-10-13T01:49:01.168Z,40.60
2022-10-13T01:49:22.337Z,44.10
2022-10-13T01:49:43.387Z,43.60
2022-10-13T01:50:04.454Z,40.40
2022-10-13T01:50:25.489Z,43.00
2022-10-13T01:50:46.548Z,40.70
2022-10-13T01:51:07.693Z,45.10
2022-10-13T01:51:28.745Z,40.50
2022-10-13T01:51:49.801Z,40.50
2022-10-13T01:52:10.863Z,38.60
2022-10-13T01:52:31.956Z,39.10
2022-10-13T01:52:52.977Z,38.40
2022-10-13T01:53:14.032Z,39.20
2022-10-13T01:53:35.076Z,40.90
2022-10-13T01:53:56.140Z,40.70
2022-10-13T01:54:17.197Z,41.10
2022-10-13T01:54:38.241Z,42.00
2022-10-13T01:54:59.420Z,38.10
2022-10-13T01:55:20.463Z,34.30
2022-10-13T01:55:41.563Z,35.50
2022-10-13T01:56:02.596Z,36.00
2022-10-13T01:56:23.648Z,37.40
2022-10-13T01:56:44.703Z,38.50
2022-10-13T01:57:05.754Z,46.20
2022-10-13T01:57:26.801Z,33.60
2022-10-13T01:57:47.847Z,32.50
2022-10-13T01:58:08.896Z,41.20
2022-10-13T01:58:29.958Z,42.60
2022-10-13T01:58:51.012Z,54.30
2022-10-13T01:59:12.077Z,62.70
2022-10-13T01:59:33.117Z,42.70
2022-10-13T01:59:54.163Z,43.30
2022-10-13T02:00:15.327Z,35.70
2022-10-13T02:00:36.415Z,39.10
2022-10-13T02:00:57.497Z,40.40
2022-10-13T02:01:18.571Z,29.30
2022-10-13T02:01:39.633Z,28.30
2022-10-13T02:02:00.692Z,30.00
2022-10-13T02:02:22.046Z,30.20
2022-10-13T02:02:43.182Z,34.70
2022-10-13T02:03:04.259Z,42.30
2022-10-13T02:03:25.296Z,34.30
2022-10-13T02:03:46.348Z,30.40
2022-10-13T02:04:07.405Z,34.50
2022-10-13T02:04:28.459Z,42.80
2022-10-13T02:04:49.540Z,37.70
2022-10-13T02:05:10.578Z,29.70
2022-10-13T02:05:31.646Z,29.30
2022-10-13T02:05:52.693Z,33.70
2022-10-13T02:06:13.751Z,44.30
2022-10-13T02:06:34.916Z,39.10
2022-10-13T02:06:55.976Z,40.20
2022-10-13T02:07:17.022Z,42.30
2022-10-13T02:07:38.101Z,40.40
2022-10-13T02:07:59.145Z,33.10
2022-10-13T02:08:20.196Z,27.10
2022-10-13T02:08:41.256Z,34.20
2022-10-13T02:09:02.295Z,51.80
2022-10-13T02:09:23.348Z,49.20
2022-10-13T02:09:44.413Z,46.20
2022-10-13T02:10:05.460Z,36.70
2022-10-13T02:10:26.514Z,34.20
2022-10-13T02:10:47.577Z,37.30
2022-10-13T02:11:08.626Z,45.70
2022-10-13T02:11:29.675Z,50.10
2022-10-13T02:11:50.733Z,48.30
2022-10-13T02:12:11.790Z,49.10
2022-10-13T02:12:32.842Z,40.90
2022-10-13T02:12:53.890Z,41.00
2022-10-13T02:13:14.943Z,44.80
2022-10-13T02:13:36.007Z,48.30
2022-10-13T02:13:57.084Z,50.60
2022-10-13T02:14:18.161Z,39.10
2022-10-13T02:14:39.186Z,30.50
2022-10-13T02:15:00.241Z,33.90
2022-10-13T02:15:21.287Z,33.20
2022-10-13T02:15:42.354Z,38.10
2022-10-13T02:16:03.502Z,42.40
2022-10-13T02:16:24.551Z,38.50
2022-10-13T02:16:45.613Z,36.30
2022-10-13T02:17:06.658Z,43.10
2022-10-13T02:17:27.721Z,44.90
2022-10-13T02:17:48.770Z,39.10
2022-10-13T02:18:09.810Z,35.60
2022-10-13T02:18:30.862Z,33.00
2022-10-13T02:18:51.913Z,36.20
2022-10-13T02:19:12.958Z,37.10
2022-10-13T02:19:34.008Z,35.30
2022-10-13T02:19:55.063Z,42.20
2022-10-13T02:20:16.124Z,38.60
2022-10-13T02:20:37.177Z,34.40
2022-10-13T02:20:58.231Z,32.20
2022-10-13T02:21:19.311Z,29.50
2022-10-13T02:21:40.360Z,30.10
2022-10-13T02:22:01.455Z,27.80
2022-10-13T02:22:22.516Z,33.20
2022-10-13T02:22:43.573Z,41.00
2022-10-13T02:23:04.619Z,34.30
2022-10-13T02:23:25.672Z,29.00
2022-10-13T02:23:46.725Z,30.50
2022-10-13T02:24:07.776Z,33.00
2022-10-13T02:24:28.833Z,37.40
2022-10-13T02:24:49.878Z,31.60
2022-10-13T02:25:10.947Z,35.50
2022-10-13T02:25:31.990Z,37.90
2022-10-13T02:25:53.039Z,34.90
2022-10-13T02:26:14.090Z,26.50
2022-10-13T02:26:35.154Z,25.00
2022-10-13T02:26:56.195Z,27.80
2022-10-13T02:27:17.271Z,28.90
2022-10-13T02:27:38.342Z,25.10
2022-10-13T02:27:59.392Z,32.70
2022-10-13T02:28:20.496Z,31.60
2022-10-13T02:28:41.577Z,28.40
2022-10-13T02:29:02.592Z,29.10
2022-10-13T02:29:23.662Z,31.30
2022-10-13T02:29:44.693Z,29.40
2022-10-13T02:30:05.743Z,28.30
2022-10-13T02:30:26.799Z,25.90
2022-10-13T02:30:47.857Z,25.70
2022-10-13T02:31:08.910Z,24.30
2022-10-13T02:31:29.966Z,26.40
2022-10-13T02:31:51.035Z,24.30
2022-10-13T02:32:12.074Z,21.50
2022-10-13T02:32:33.153Z,23.00
2022-10-13T02:32:54.197Z,24.20
2022-10-13T02:33:15.258Z,28.70
2022-10-13T02:33:36.296Z,29.20
2022-10-13T02:33:57.347Z,30.00
2022-10-13T02:34:18.403Z,30.70
2022-10-13T02:34:39.458Z,28.40
2022-10-13T02:35:00.520Z,31.80
2022-10-13T02:35:21.586Z,28.50
2022-10-13T02:35:42.638Z,28.70
2022-10-13T02:36:03.696Z,27.30
2022-10-13T02:36:24.750Z,24.00
2022-10-13T02:36:45.797Z,26.20
2022-10-13T02:37:06.850Z,29.00
2022-10-13T02:37:27.922Z,25.10
2022-10-13T02:37:48.970Z,28.30
2022-10-13T02:38:10.022Z,28.40
2022-10-13T02:38:31.331Z,24.90
2022-10-13T02:38:52.380Z,23.90
2022-10-13T02:39:13.430Z,24.70
2022-10-13T02:39:34.489Z,24.80
2022-10-13T02:39:55.534Z,22.60
2022-10-13T02:40:16.590Z,21.10
2022-10-13T02:40:37.643Z,21.40
2022-10-13T02:40:58.694Z,23.20
2022-10-13T02:41:19.761Z,23.00
2022-10-13T02:41:40.822Z,23.80
2022-10-13T02:42:01.861Z,22.10
2022-10-13T02:42:23.450Z,20.60
2022-10-13T02:42:44.640Z,22.60
2022-10-13T02:43:05.697Z,21.90
2022-10-13T02:43:26.749Z,21.10
2022-10-13T02:43:47.840Z,21.90
2022-10-13T02:44:08.886Z,23.00
2022-10-13T02:44:29.969Z,22.90
2022-10-13T02:44:50.987Z,21.60
2022-10-13T02:45:12.041Z,20.30
2022-10-13T02:45:33.091Z,21.40
2022-10-13T02:45:54.152Z,22.60
2022-10-13T02:46:15.226Z,23.20
2022-10-13T02:46:36.257Z,24.10
2022-10-13T02:46:57.305Z,24.10
2022-10-13T02:47:18.370Z,22.20
2022-10-13T02:47:39.409Z,23.30
2022-10-13T02:48:00.465Z,22.40
2022-10-13T02:48:21.513Z,23.40
2022-10-13T02:48:42.585Z,22.10
2022-10-13T02:49:03.674Z,20.80
2022-10-13T02:49:24.720Z,20.50
2022-10-13T02:49:45.800Z,20.80
2022-10-13T02:50:06.852Z,21.20
2022-10-13T02:50:27.902Z,20.30
2022-10-13T02:50:48.959Z,22.00
2022-10-13T02:51:10.013Z,23.00
2022-10-13T02:51:32.474Z,22.80
2022-10-13T02:51:56.129Z,20.60
2022-10-13T02:52:17.574Z,21.90
2022-10-13T02:52:38.784Z,22.10
2022-10-13T02:52:59.830Z,21.80
2022-10-13T02:53:20.884Z,21.80
2022-10-13T02:53:41.931Z,21.00
2022-10-13T02:54:02.978Z,20.50
2022-10-13T02:54:24.147Z,20.80
2022-10-13T02:54:45.196Z,21.20
2022-10-13T02:55:06.243Z,21.30
2022-10-13T02:55:27.321Z,21.60
2022-10-13T02:55:48.353Z,20.70
2022-10-13T02:56:09.399Z,20.00
2022-10-13T02:56:30.451Z,20.60
2022-10-13T02:56:51.512Z,20.40
2022-10-13T02:57:12.560Z,19.70
2022-10-13T02:57:33.620Z,19.70
2022-10-13T02:57:54.667Z,19.80
2022-10-13T02:58:15.717Z,19.90
2022-10-13T02:58:36.772Z,19.60
2022-10-13T02:58:57.824Z,19.50
2022-10-13T02:59:18.875Z,20.60
2022-10-13T02:59:39.967Z,20.80
2022-10-13T03:00:00.989Z,20.50
2022-10-13T03:00:22.059Z,20.60
2022-10-13T03:00:43.149Z,19.70
2022-10-13T03:01:04.251Z,21.40
2022-10-13T03:01:25.270Z,20.90
2022-10-13T03:01:46.316Z,20.20
2022-10-13T03:02:07.376Z,20.30
2022-10-13T03:02:28.425Z,20.10
2022-10-13T03:02:49.474Z,18.80
2022-10-13T03:03:10.528Z,20.60
2022-10-13T03:03:31.577Z,21.70
2022-10-13T03:03:52.633Z,20.70
2022-10-13T03:04:13.684Z,20.60
2022-10-13T03:04:34.720Z,20.00
2022-10-13T03:04:55.792Z,20.60
2022-10-13T03:05:16.849Z,21.60
2022-10-13T03:05:37.894Z,21.20
2022-10-13T03:05:58.935Z,22.70
2022-10-13T03:06:19.989Z,20.70
2022-10-13T03:06:41.038Z,19.30
2022-10-13T03:07:02.096Z,20.70
2022-10-13T03:07:23.143Z,21.70
2022-10-13T03:07:44.210Z,21.10
2022-10-13T03:08:05.261Z,21.20
2022-10-13T03:08:26.310Z,21.90
2022-10-13T03:08:47.369Z,20.60
2022-10-13T03:09:08.420Z,23.60
2022-10-13T03:09:29.562Z,22.50
2022-10-13T03:09:50.609Z,21.80
2022-10-13T03:10:11.784Z,21.60
2022-10-13T03:10:32.829Z,20.80
2022-10-13T03:10:53.892Z,20.80
2022-10-13T03:11:14.953Z,20.80
2022-10-13T03:11:35.998Z,21.10
2022-10-13T03:11:57.061Z,21.80
2022-10-13T03:12:18.549Z,21.60
2022-10-13T03:12:39.813Z,21.10
2022-10-13T03:13:00.859Z,21.10
2022-10-13T03:13:21.915Z,21.70
2022-10-13T03:13:42.969Z,21.60
2022-10-13T03:14:04.029Z,20.30
2022-10-13T03:14:25.074Z,19.90
2022-10-13T03:14:46.141Z,20.50
2022-10-13T03:15:07.179Z,20.80
2022-10-13T03:15:28.336Z,22.10
2022-10-13T03:15:49.399Z,23.20
2022-10-13T03:16:10.448Z,22.00
2022-10-13T03:16:31.503Z,23.10
2022-10-13T03:16:52.554Z,24.00
2022-10-13T03:17:13.768Z,23.70
2022-10-13T03:17:34.808Z,22.70
2022-10-13T03:17:55.984Z,23.80
2022-10-13T03:18:17.031Z,22.70
2022-10-13T03:18:38.083Z,23.60
2022-10-13T03:18:59.130Z,24.50
2022-10-13T03:19:20.183Z,23.10
2022-10-13T03:19:41.253Z,22.60
2022-10-13T03:20:02.297Z,22.90
2022-10-13T03:20:23.348Z,23.20
2022-10-13T03:20:44.407Z,21.00
2022-10-13T03:21:05.590Z,23.10
2022-10-13T03:21:26.642Z,23.10
2022-10-13T03:21:47.705Z,24.00
2022-10-13T03:22:08.758Z,25.30
2022-10-13T03:22:29.804Z,23.20
2022-10-13T03:22:50.882Z,23.40
2022-10-13T03:23:11.919Z,23.00
2022-10-13T03:23:32.974Z,26.70
2022-10-13T03:23:54.034Z,22.30
2022-10-13T03:24:15.095Z,20.90
2022-10-13T03:24:36.135Z,21.70
2022-10-13T03:24:57.190Z,23.60
2022-10-13T03:25:18.299Z,21.90
2022-10-13T03:25:39.349Z,22.70
2022-10-13T03:26:00.400Z,22.90
2022-10-13T03:26:21.452Z,21.70
2022-10-13T03:26:42.609Z,23.40
2022-10-13T03:27:03.669Z,24.60
2022-10-13T03:27:24.720Z,23.40
2022-10-13T03:27:45.790Z,23.00
2022-10-13T03:28:06.834Z,24.60
2022-10-13T03:28:27.952Z,22.30
2022-10-13T03:28:49.044Z,22.20
2022-10-13T03:29:10.082Z,20.50
2022-10-13T03:29:31.132Z,23.50
2022-10-13T03:29:52.204Z,23.70
2022-10-13T03:30:13.231Z,22.30
2022-10-13T03:30:34.297Z,22.30
2022-10-13T03:30:55.349Z,21.70
2022-10-13T03:31:16.402Z,21.40
2022-10-13T03:31:37.591Z,22.40
2022-10-13T03:31:58.626Z,20.90
2022-10-13T03:32:19.894Z,22.30
2022-10-13T03:32:41.041Z,22.50
2022-10-13T03:33:02.094Z,22.20
2022-10-13T03:33:23.140Z,20.90
2022-10-13T03:33:44.199Z,22.10
2022-10-13T03:34:05.249Z,23.40
2022-10-13T03:34:26.309Z,19.80
2022-10-13T03:34:47.349Z,19.90
2022-10-13T03:35:08.402Z,21.00
2022-10-13T03:35:29.467Z,21.70
2022-10-13T03:35:50.524Z,20.50
2022-10-13T03:36:11.578Z,19.60
2022-10-13T03:36:32.649Z,21.70
2022-10-13T03:36:53.762Z,21.30
2022-10-13T03:37:14.779Z,21.20
2022-10-13T03:37:35.854Z,21.40
2022-10-13T03:37:56.891Z,20.20
2022-10-13T03:38:17.944Z,20.40
2022-10-13T03:38:38.996Z,22.30
2022-10-13T03:39:00.044Z,22.70
2022-10-13T03:39:21.110Z,21.00
2022-10-13T03:39:42.156Z,20.70
2022-10-13T03:40:03.215Z,20.30
2022-10-13T03:40:24.263Z,21.60
2022-10-13T03:40:45.311Z,23.10
2022-10-13T03:41:06.380Z,22.10
2022-10-13T03:41:27.441Z,20.60
2022-10-13T03:41:48.509Z,19.90
2022-10-13T03:42:09.564Z,20.10
2022-10-13T03:42:30.614Z,21.60
2022-10-13T03:42:51.662Z,20.60
2022-10-13T03:43:12.716Z,22.20
2022-10-13T03:43:33.784Z,23.20
2022-10-13T03:43:54.833Z,23.10
2022-10-13T03:44:15.878Z,22.60
2022-10-13T03:44:36.934Z,21.30
2022-10-13T03:44:57.997Z,20.60
2022-10-13T03:45:19.027Z,21.90
2022-10-13T03:45:40.081Z,21.70
2022-10-13T03:46:01.134Z,20.40
2022-10-13T03:46:22.195Z,21.40
2022-10-13T03:46:43.245Z,22.50
2022-10-13T03:47:04.292Z,21.10
2022-10-13T03:47:25.348Z,21.10
2022-10-13T03:47:46.400Z,20.30
2022-10-13T03:48:07.451Z,20.30
2022-10-13T03:48:28.503Z,19.00
2022-10-13T03:48:49.550Z,20.80
2022-10-13T03:49:10.598Z,20.10
2022-10-13T03:49:31.645Z,19.50
2022-10-13T03:49:52.704Z,19.80
2022-10-13T03:50:13.744Z,23.00
2022-10-13T03:50:34.798Z,22.50
2022-10-13T03:50:55.852Z,21.90
2022-10-13T03:51:16.899Z,21.50
2022-10-13T03:51:37.960Z,21.00
2022-10-13T03:51:59.023Z,21.10
2022-10-13T03:52:20.454Z,22.10
2022-10-13T03:52:41.723Z,22.00
2022-10-13T03:53:02.767Z,19.90
2022-10-13T03:53:23.824Z,22.10
2022-10-13T03:53:44.880Z,22.30
2022-10-13T03:54:05.931Z,22.00
2022-10-13T03:54:26.985Z,21.90
2022-10-13T03:54:48.043Z,19.50
2022-10-13T03:55:09.107Z,21.80
2022-10-13T03:55:30.164Z,21.00
2022-10-13T03:55:51.214Z,23.10
2022-10-13T03:56:12.265Z,21.00
2022-10-13T03:56:33.313Z,20.70
2022-10-13T03:56:54.467Z,19.80
2022-10-13T03:57:15.518Z,20.60
2022-10-13T03:57:36.571Z,21.00
2022-10-13T03:57:57.621Z,22.70
2022-10-13T03:58:18.697Z,21.40
2022-10-13T03:58:39.771Z,21.20
2022-10-13T03:59:00.820Z,22.40
2022-10-13T03:59:21.869Z,24.40
2022-10-13T03:59:42.917Z,23.20
2022-10-13T04:00:04.133Z,25.20
2022-10-13T04:00:25.118Z,24.80
2022-10-13T04:00:46.171Z,24.60
2022-10-13T04:01:07.237Z,25.70
2022-10-13T04:01:28.364Z,25.00
2022-10-13T04:01:49.471Z,25.00
2022-10-13T04:02:10.500Z,24.70
2022-10-13T04:02:31.547Z,26.90
2022-10-13T04:02:52.597Z,24.90
2022-10-13T04:03:13.761Z,25.00
2022-10-13T04:03:34.831Z,25.20
2022-10-13T04:03:55.903Z,25.40
2022-10-13T04:04:16.935Z,25.60
2022-10-13T04:04:37.979Z,25.50
2022-10-13T04:04:59.027Z,26.90
2022-10-13T04:05:20.076Z,28.20
2022-10-13T04:05:41.129Z,25.80
2022-10-13T04:06:02.186Z,25.60
2022-10-13T04:06:23.229Z,25.50
2022-10-13T04:06:44.297Z,25.80
2022-10-13T04:07:05.325Z,26.90
2022-10-13T04:07:26.374Z,25.80
2022-10-13T04:07:47.423Z,26.90
2022-10-13T04:08:08.479Z,26.90
2022-10-13T04:08:29.576Z,27.20
2022-10-13T04:08:50.627Z,27.60
2022-10-13T04:09:11.691Z,26.50
2022-10-13T04:09:32.747Z,23.60
2022-10-13T04:09:53.785Z,22.60
2022-10-13T04:10:14.855Z,24.30
2022-10-13T04:10:35.900Z,24.90
2022-10-13T04:10:56.949Z,26.10
2022-10-13T04:11:18.005Z,25.20
2022-10-13T04:11:39.064Z,26.40
2022-10-13T04:12:00.120Z,25.60
2022-10-13T04:12:21.471Z,25.30
2022-10-13T04:12:42.517Z,27.80
2022-10-13T04:13:03.559Z,27.70
2022-10-13T04:13:24.626Z,25.10
2022-10-13T04:13:45.785Z,24.00
2022-10-13T04:14:06.836Z,25.10
2022-10-13T04:14:27.877Z,23.90
2022-10-13T04:14:48.926Z,24.70
2022-10-13T04:15:09.998Z,23.10
2022-10-13T04:15:31.030Z,25.50
2022-10-13T04:15:52.091Z,27.40
2022-10-13T04:16:13.141Z,27.20
2022-10-13T04:16:34.189Z,24.70
2022-10-13T04:16:55.239Z,23.80
2022-10-13T04:17:16.292Z,25.50
2022-10-13T04:17:37.343Z,25.80
2022-10-13T04:17:58.391Z,27.30
2022-10-13T04:18:19.439Z,24.60
2022-10-13T04:18:44.430Z,26.10
2022-10-13T04:19:05.891Z,24.60
2022-10-13T04:19:26.941Z,24.00
2022-10-13T04:19:47.986Z,30.20
2022-10-13T04:20:09.042Z,29.80
2022-10-13T04:20:30.093Z,31.70
2022-10-13T04:20:51.147Z,30.90
2022-10-13T04:21:12.196Z,26.70
2022-10-13T04:21:33.247Z,30.60
2022-10-13T04:21:54.299Z,29.40
2022-10-13T04:22:15.361Z,29.70
2022-10-13T04:22:36.414Z,28.60
2022-10-13T04:22:57.463Z,27.60
2022-10-13T04:23:18.552Z,28.60
2022-10-13T04:23:39.574Z,31.10
2022-10-13T04:24:00.628Z,29.30
2022-10-13T04:24:21.674Z,28.60
2022-10-13T04:24:42.734Z,30.20
2022-10-13T04:25:03.788Z,28.20
2022-10-13T04:25:24.853Z,32.30
2022-10-13T04:25:45.906Z,29.40
2022-10-13T04:26:06.974Z,28.50
2022-10-13T04:26:28.017Z,30.70
2022-10-13T04:26:49.080Z,28.40
2022-10-13T04:27:10.118Z,32.00
2022-10-13T04:27:31.175Z,33.40
2022-10-13T04:27:52.229Z,30.40
2022-10-13T04:28:13.368Z,30.90
2022-10-13T04:28:34.530Z,32.80
2022-10-13T04:28:55.603Z,31.70
2022-10-13T04:29:16.649Z,33.10
2022-10-13T04:29:37.696Z,33.80
2022-10-13T04:29:58.747Z,32.60
2022-10-13T04:30:19.823Z,30.40
2022-10-13T04:30:41.656Z,33.70
2022-10-13T04:31:04.695Z,32.40
2022-10-13T04:31:25.747Z,30.60
2022-10-13T04:31:46.809Z,32.60